sensor_id;sensor_type;location;lat;lon;timestamp;P1;durP1;ratioP1;P2;durP2;ratioP2
14139;SDS011;7150;53.514;9.988;2023-04-01T00:00:21;5.63;;;3.67;;
14139;SDS011;7150;53.514;9.988;2023-04-01T00:02:47;4.93;;;3.07;;
14139;SDS011;7150;53.514;9.988;2023-04-01T00:05:13;5.37;;;3.27;;
14139;SDS011;7150;53.514;9.988;2023-04-01T00:07:39;6.67;;;3.00;;
14139;SDS011;7150;53.514;9.988;2023-04-01T00:10:09;7.20;;;3.03;;
14139;SDS011;7150;53.514;9.988;2023-04-01T00:12:36;5.87;;;3.57;;
14139;SDS011;7150;53.514;9.988;2023-04-01T00:15:03;5.80;;;2.97;;
14139;SDS011;7150;53.514;9.988;2023-04-01T00:17:29;7.27;;;3.20;;
14139;SDS011;7150;53.514;9.988;2023-04-01T00:19:55;4.70;;;3.53;;
14139;SDS011;7150;53.514;9.988;2023-04-01T00:22:22;4.37;;;3.10;;
14139;SDS011;7150;53.514;9.988;2023-04-01T00:24:48;8.30;;;3.67;;
14139;SDS011;7150;53.514;9.988;2023-04-01T00:27:14;5.13;;;3.43;;
14139;SDS011;7150;53.514;9.988;2023-04-01T00:29:43;8.17;;;3.27;;
14139;SDS011;7150;53.514;9.988;2023-04-01T00:32:09;9.07;;;3.57;;
14139;SDS011;7150;53.514;9.988;2023-04-01T00:34:35;6.13;;;3.27;;
14139;SDS011;7150;53.514;9.988;2023-04-01T00:37:01;6.67;;;3.53;;
14139;SDS011;7150;53.514;9.988;2023-04-01T00:39:30;4.97;;;3.33;;
14139;SDS011;7150;53.514;9.988;2023-04-01T00:41:56;8.23;;;3.50;;
14139;SDS011;7150;53.514;9.988;2023-04-01T00:44:23;4.93;;;3.20;;
14139;SDS011;7150;53.514;9.988;2023-04-01T00:46:51;6.30;;;3.13;;
14139;SDS011;7150;53.514;9.988;2023-04-01T00:49:17;4.87;;;3.00;;
14139;SDS011;7150;53.514;9.988;2023-04-01T00:51:47;6.73;;;3.20;;
14139;SDS011;7150;53.514;9.988;2023-04-01T00:54:15;4.23;;;2.90;;
14139;SDS011;7150;53.514;9.988;2023-04-01T00:56:48;5.17;;;3.30;;
14139;SDS011;7150;53.514;9.988;2023-04-01T00:59:42;7.63;;;3.53;;
14139;SDS011;7150;53.514;9.988;2023-04-01T01:02:11;4.17;;;2.80;;
14139;SDS011;7150;53.514;9.988;2023-04-01T01:04:37;5.70;;;2.90;;
14139;SDS011;7150;53.514;9.988;2023-04-01T01:07:07;6.70;;;2.97;;
14139;SDS011;7150;53.514;9.988;2023-04-01T01:12:31;6.10;;;3.13;;
14139;SDS011;7150;53.514;9.988;2023-04-01T01:18:02;4.77;;;3.27;;
14139;SDS011;7150;53.514;9.988;2023-04-01T01:20:48;3.73;;;2.93;;
14139;SDS011;7150;53.514;9.988;2023-04-01T01:38:10;5.07;;;2.83;;
14139;SDS011;7150;53.514;9.988;2023-04-01T01:40:39;4.03;;;2.73;;
14139;SDS011;7150;53.514;9.988;2023-04-01T01:43:09;7.20;;;2.87;;
14139;SDS011;7150;53.514;9.988;2023-04-01T01:45:39;7.97;;;3.17;;
14139;SDS011;7150;53.514;9.988;2023-04-01T01:48:09;4.23;;;2.90;;
14139;SDS011;7150;53.514;9.988;2023-04-01T01:50:37;5.53;;;2.80;;
14139;SDS011;7150;53.514;9.988;2023-04-01T01:53:10;4.90;;;2.67;;
14139;SDS011;7150;53.514;9.988;2023-04-01T01:55:38;6.00;;;2.90;;
14139;SDS011;7150;53.514;9.988;2023-04-01T02:01:01;5.80;;;2.73;;
14139;SDS011;7150;53.514;9.988;2023-04-01T02:03:30;7.07;;;2.97;;
14139;SDS011;7150;53.514;9.988;2023-04-01T02:05:59;4.90;;;2.70;;
14139;SDS011;7150;53.514;9.988;2023-04-01T02:11:05;4.87;;;2.87;;
14139;SDS011;7150;53.514;9.988;2023-04-01T02:13:35;4.60;;;3.03;;
14139;SDS011;7150;53.514;9.988;2023-04-01T02:16:34;7.03;;;3.47;;
14139;SDS011;7150;53.514;9.988;2023-04-01T02:19:04;7.33;;;3.37;;
14139;SDS011;7150;53.514;9.988;2023-04-01T02:21:32;7.37;;;3.20;;
14139;SDS011;7150;53.514;9.988;2023-04-01T02:24:00;5.67;;;3.43;;
14139;SDS011;7150;53.514;9.988;2023-04-01T02:26:29;6.30;;;3.87;;
14139;SDS011;7150;53.514;9.988;2023-04-01T02:28:55;6.33;;;3.50;;
14139;SDS011;7150;53.514;9.988;2023-04-01T02:31:22;6.53;;;3.57;;
14139;SDS011;7150;53.514;9.988;2023-04-01T02:33:48;4.60;;;3.20;;
14139;SDS011;7150;53.514;9.988;2023-04-01T02:36:15;6.10;;;3.23;;
14139;SDS011;7150;53.514;9.988;2023-04-01T02:38:42;5.87;;;3.07;;
14139;SDS011;7150;53.514;9.988;2023-04-01T02:41:10;8.73;;;3.43;;
14139;SDS011;7150;53.514;9.988;2023-04-01T02:43:36;8.30;;;3.60;;
14139;SDS011;7150;53.514;9.988;2023-04-01T02:46:01;8.43;;;3.40;;
14139;SDS011;7150;53.514;9.988;2023-04-01T02:48:27;5.23;;;3.23;;
14139;SDS011;7150;53.514;9.988;2023-04-01T02:50:53;6.93;;;3.17;;
14139;SDS011;7150;53.514;9.988;2023-04-01T02:53:19;5.10;;;3.20;;
14139;SDS011;7150;53.514;9.988;2023-04-01T02:55:44;6.27;;;3.13;;
14139;SDS011;7150;53.514;9.988;2023-04-01T02:58:10;4.67;;;3.10;;
14139;SDS011;7150;53.514;9.988;2023-04-01T03:00:36;8.23;;;3.37;;
14139;SDS011;7150;53.514;9.988;2023-04-01T03:03:02;6.67;;;3.30;;
14139;SDS011;7150;53.514;9.988;2023-04-01T03:05:27;7.07;;;3.70;;
14139;SDS011;7150;53.514;9.988;2023-04-01T03:07:53;8.53;;;3.70;;
14139;SDS011;7150;53.514;9.988;2023-04-01T03:10:19;6.07;;;3.20;;
14139;SDS011;7150;53.514;9.988;2023-04-01T03:12:44;7.17;;;3.43;;
14139;SDS011;7150;53.514;9.988;2023-04-01T03:15:11;4.90;;;2.77;;
14139;SDS011;7150;53.514;9.988;2023-04-01T03:17:39;6.23;;;4.00;;
14139;SDS011;7150;53.514;9.988;2023-04-01T03:20:05;4.63;;;2.97;;
14139;SDS011;7150;53.514;9.988;2023-04-01T03:22:31;5.00;;;3.13;;
14139;SDS011;7150;53.514;9.988;2023-04-01T03:24:56;5.70;;;3.17;;
14139;SDS011;7150;53.514;9.988;2023-04-01T03:27:22;8.90;;;2.90;;
14139;SDS011;7150;53.514;9.988;2023-04-01T03:29:48;6.50;;;2.97;;
14139;SDS011;7150;53.514;9.988;2023-04-01T03:32:13;7.00;;;3.50;;
14139;SDS011;7150;53.514;9.988;2023-04-01T03:34:39;8.33;;;3.40;;
14139;SDS011;7150;53.514;9.988;2023-04-01T03:37:04;4.93;;;2.90;;
14139;SDS011;7150;53.514;9.988;2023-04-01T03:39:30;5.10;;;3.30;;
14139;SDS011;7150;53.514;9.988;2023-04-01T03:41:56;4.90;;;3.00;;
14139;SDS011;7150;53.514;9.988;2023-04-01T03:44:21;5.57;;;2.90;;
14139;SDS011;7150;53.514;9.988;2023-04-01T03:46:47;4.60;;;2.70;;
14139;SDS011;7150;53.514;9.988;2023-04-01T03:49:12;5.80;;;2.83;;
14139;SDS011;7150;53.514;9.988;2023-04-01T03:51:39;3.93;;;2.60;;
14139;SDS011;7150;53.514;9.988;2023-04-01T03:54:05;5.23;;;2.73;;
14139;SDS011;7150;53.514;9.988;2023-04-01T03:56:31;5.23;;;3.17;;
14139;SDS011;7150;53.514;9.988;2023-04-01T03:58:57;3.77;;;2.47;;
14139;SDS011;7150;53.514;9.988;2023-04-01T04:01:23;6.17;;;3.07;;
14139;SDS011;7150;53.514;9.988;2023-04-01T04:03:49;7.23;;;3.20;;
14139;SDS011;7150;53.514;9.988;2023-04-01T04:06:15;6.67;;;3.60;;
14139;SDS011;7150;53.514;9.988;2023-04-01T04:08:43;5.43;;;2.90;;
14139;SDS011;7150;53.514;9.988;2023-04-01T04:11:09;8.87;;;3.50;;
14139;SDS011;7150;53.514;9.988;2023-04-01T04:13:35;5.10;;;3.00;;
14139;SDS011;7150;53.514;9.988;2023-04-01T04:16:01;6.07;;;3.17;;
14139;SDS011;7150;53.514;9.988;2023-04-01T04:18:27;8.73;;;2.90;;
14139;SDS011;7150;53.514;9.988;2023-04-01T04:20:53;6.33;;;3.20;;
14139;SDS011;7150;53.514;9.988;2023-04-01T04:23:18;4.97;;;2.90;;
14139;SDS011;7150;53.514;9.988;2023-04-01T04:25:57;7.33;;;3.73;;
14139;SDS011;7150;53.514;9.988;2023-04-01T04:28:25;8.23;;;3.07;;
14139;SDS011;7150;53.514;9.988;2023-04-01T04:30:51;8.43;;;3.30;;
14139;SDS011;7150;53.514;9.988;2023-04-01T04:33:17;4.47;;;2.90;;
14139;SDS011;7150;53.514;9.988;2023-04-01T04:35:43;7.37;;;3.27;;
14139;SDS011;7150;53.514;9.988;2023-04-01T04:38:08;4.87;;;3.33;;
14139;SDS011;7150;53.514;9.988;2023-04-01T04:40:35;6.43;;;3.07;;
14139;SDS011;7150;53.514;9.988;2023-04-01T04:43:02;5.67;;;3.40;;
14139;SDS011;7150;53.514;9.988;2023-04-01T04:45:28;6.20;;;3.50;;
14139;SDS011;7150;53.514;9.988;2023-04-01T04:47:53;7.50;;;3.30;;
14139;SDS011;7150;53.514;9.988;2023-04-01T04:50:19;5.77;;;2.93;;
14139;SDS011;7150;53.514;9.988;2023-04-01T04:52:44;7.83;;;3.20;;
14139;SDS011;7150;53.514;9.988;2023-04-01T04:55:10;4.87;;;2.97;;
14139;SDS011;7150;53.514;9.988;2023-04-01T04:57:35;5.93;;;3.43;;
14139;SDS011;7150;53.514;9.988;2023-04-01T05:00:01;7.50;;;3.37;;
14139;SDS011;7150;53.514;9.988;2023-04-01T05:02:27;6.63;;;3.20;;
14139;SDS011;7150;53.514;9.988;2023-04-01T05:04:52;5.20;;;3.07;;
14139;SDS011;7150;53.514;9.988;2023-04-01T05:07:18;6.73;;;3.83;;
14139;SDS011;7150;53.514;9.988;2023-04-01T05:09:43;5.40;;;3.13;;
14139;SDS011;7150;53.514;9.988;2023-04-01T05:12:10;6.60;;;3.20;;
14139;SDS011;7150;53.514;9.988;2023-04-01T05:14:37;6.07;;;3.60;;
14139;SDS011;7150;53.514;9.988;2023-04-01T05:17:03;6.20;;;3.43;;
14139;SDS011;7150;53.514;9.988;2023-04-01T05:19:29;6.20;;;3.60;;
14139;SDS011;7150;53.514;9.988;2023-04-01T05:21:54;4.20;;;3.17;;
14139;SDS011;7150;53.514;9.988;2023-04-01T05:24:20;9.97;;;3.60;;
14139;SDS011;7150;53.514;9.988;2023-04-01T05:26:45;6.67;;;3.90;;
14139;SDS011;7150;53.514;9.988;2023-04-01T05:29:11;5.67;;;3.43;;
14139;SDS011;7150;53.514;9.988;2023-04-01T05:31:36;5.10;;;3.53;;
14139;SDS011;7150;53.514;9.988;2023-04-01T05:34:02;6.07;;;3.53;;
14139;SDS011;7150;53.514;9.988;2023-04-01T05:36:27;6.57;;;3.40;;
14139;SDS011;7150;53.514;9.988;2023-04-01T05:38:56;5.50;;;3.43;;
14139;SDS011;7150;53.514;9.988;2023-04-01T05:41:22;6.37;;;3.47;;
14139;SDS011;7150;53.514;9.988;2023-04-01T05:43:47;5.17;;;3.03;;
14139;SDS011;7150;53.514;9.988;2023-04-01T05:46:13;5.57;;;4.00;;
14139;SDS011;7150;53.514;9.988;2023-04-01T05:48:38;6.70;;;4.10;;
14139;SDS011;7150;53.514;9.988;2023-04-01T05:51:04;6.87;;;3.77;;
14139;SDS011;7150;53.514;9.988;2023-04-01T05:53:30;6.40;;;4.00;;
14139;SDS011;7150;53.514;9.988;2023-04-01T05:55:55;8.60;;;4.03;;
14139;SDS011;7150;53.514;9.988;2023-04-01T05:58:21;8.00;;;3.77;;
14139;SDS011;7150;53.514;9.988;2023-04-01T06:00:46;7.50;;;3.33;;
14139;SDS011;7150;53.514;9.988;2023-04-01T06:03:12;3.57;;;2.00;;
14139;SDS011;7150;53.514;9.988;2023-04-01T06:05:41;2.43;;;1.60;;
14139;SDS011;7150;53.514;9.988;2023-04-01T06:08:12;1.27;;;1.17;;
14139;SDS011;7150;53.514;9.988;2023-04-01T06:10:47;1.80;;;0.90;;
14139;SDS011;7150;53.514;9.988;2023-04-01T06:14:14;1.23;;;1.10;;
14139;SDS011;7150;53.514;9.988;2023-04-01T06:19:17;2.03;;;1.10;;
14139;SDS011;7150;53.514;9.988;2023-04-01T06:30:43;1.07;;;0.70;;
14139;SDS011;7150;53.514;9.988;2023-04-01T06:38:54;1.50;;;0.90;;
14139;SDS011;7150;53.514;9.988;2023-04-01T06:41:50;0.40;;;0.40;;
14139;SDS011;7150;53.514;9.988;2023-04-01T06:44:31;1.27;;;1.00;;
14139;SDS011;7150;53.514;9.988;2023-04-01T06:52:36;1.17;;;0.87;;
14139;SDS011;7150;53.514;9.988;2023-04-01T06:57:51;1.30;;;1.00;;
14139;SDS011;7150;53.514;9.988;2023-04-01T07:00:29;0.80;;;0.80;;
14139;SDS011;7150;53.514;9.988;2023-04-01T07:05:58;1.23;;;1.10;;
14139;SDS011;7150;53.514;9.988;2023-04-01T07:08:29;1.43;;;0.70;;
14139;SDS011;7150;53.514;9.988;2023-04-01T07:11:05;1.17;;;0.70;;
14139;SDS011;7150;53.514;9.988;2023-04-01T07:16:24;1.13;;;0.70;;
14139;SDS011;7150;53.514;9.988;2023-04-01T07:19:05;2.13;;;0.90;;
14139;SDS011;7150;53.514;9.988;2023-04-01T07:21:41;1.33;;;0.90;;
14139;SDS011;7150;53.514;9.988;2023-04-01T07:24:10;0.77;;;0.50;;
14139;SDS011;7150;53.514;9.988;2023-04-01T07:26:54;1.00;;;0.80;;
14139;SDS011;7150;53.514;9.988;2023-04-01T07:29:21;2.33;;;1.00;;
14139;SDS011;7150;53.514;9.988;2023-04-01T07:35:00;1.27;;;0.80;;
14139;SDS011;7150;53.514;9.988;2023-04-01T07:37:39;1.03;;;0.70;;
14139;SDS011;7150;53.514;9.988;2023-04-01T07:43:40;1.53;;;1.10;;
14139;SDS011;7150;53.514;9.988;2023-04-01T07:48:52;1.20;;;0.70;;
14139;SDS011;7150;53.514;9.988;2023-04-01T07:59:42;0.70;;;0.70;;
14139;SDS011;7150;53.514;9.988;2023-04-01T08:13:08;0.60;;;0.60;;
14139;SDS011;7150;53.514;9.988;2023-04-01T08:15:49;2.60;;;1.00;;
14139;SDS011;7150;53.514;9.988;2023-04-01T08:18:38;0.80;;;0.70;;
14139;SDS011;7150;53.514;9.988;2023-04-01T08:21:47;0.60;;;0.60;;
14139;SDS011;7150;53.514;9.988;2023-04-01T08:24:27;0.80;;;0.80;;
14139;SDS011;7150;53.514;9.988;2023-04-01T08:27:16;1.03;;;0.77;;
14139;SDS011;7150;53.514;9.988;2023-04-01T08:30:01;1.60;;;0.90;;
14139;SDS011;7150;53.514;9.988;2023-04-01T08:32:37;1.70;;;0.77;;
14139;SDS011;7150;53.514;9.988;2023-04-01T08:35:08;2.07;;;0.70;;
14139;SDS011;7150;53.514;9.988;2023-04-01T08:37:41;0.90;;;0.90;;
14139;SDS011;7150;53.514;9.988;2023-04-01T08:43:06;0.57;;;0.57;;
14139;SDS011;7150;53.514;9.988;2023-04-01T08:59:21;1.67;;;0.73;;
14139;SDS011;7150;53.514;9.988;2023-04-01T09:11:06;0.50;;;0.50;;
14139;SDS011;7150;53.514;9.988;2023-04-01T09:19:11;0.73;;;0.60;;
14139;SDS011;7150;53.514;9.988;2023-04-01T09:25:01;1.17;;;0.83;;
14139;SDS011;7150;53.514;9.988;2023-04-01T09:27:43;0.60;;;0.47;;
14139;SDS011;7150;53.514;9.988;2023-04-01T09:30:39;0.93;;;0.70;;
14139;SDS011;7150;53.514;9.988;2023-04-01T09:44:33;2.30;;;1.17;;
14139;SDS011;7150;53.514;9.988;2023-04-01T09:49:50;1.80;;;1.10;;
14139;SDS011;7150;53.514;9.988;2023-04-01T10:00:46;1.13;;;1.00;;
14139;SDS011;7150;53.514;9.988;2023-04-01T10:11:22;1.17;;;0.80;;
14139;SDS011;7150;53.514;9.988;2023-04-01T10:25:32;2.10;;;0.80;;
14139;SDS011;7150;53.514;9.988;2023-04-01T10:28:18;0.63;;;0.57;;
14139;SDS011;7150;53.514;9.988;2023-04-01T10:36:57;0.80;;;0.70;;
14139;SDS011;7150;53.514;9.988;2023-04-01T10:51:25;1.17;;;1.07;;
14139;SDS011;7150;53.514;9.988;2023-04-01T10:54:18;1.60;;;0.90;;
14139;SDS011;7150;53.514;9.988;2023-04-01T10:56:54;1.37;;;1.20;;
14139;SDS011;7150;53.514;9.988;2023-04-01T11:08:18;0.60;;;0.40;;
14139;SDS011;7150;53.514;9.988;2023-04-01T11:20:09;1.03;;;0.70;;
14139;SDS011;7150;53.514;9.988;2023-04-01T11:22:57;0.70;;;0.70;;
14139;SDS011;7150;53.514;9.988;2023-04-01T11:34:36;0.97;;;0.80;;
14139;SDS011;7150;53.514;9.988;2023-04-01T11:40:31;0.70;;;0.63;;
14139;SDS011;7150;53.514;9.988;2023-04-01T11:55:24;0.90;;;0.80;;
14139;SDS011;7150;53.514;9.988;2023-04-01T12:00:41;1.20;;;1.10;;
14139;SDS011;7150;53.514;9.988;2023-04-01T12:12:08;2.57;;;1.43;;
14139;SDS011;7150;53.514;9.988;2023-04-01T12:20:20;1.63;;;1.50;;
14139;SDS011;7150;53.514;9.988;2023-04-01T12:23:13;2.70;;;1.60;;
14139;SDS011;7150;53.514;9.988;2023-04-01T12:26:09;2.43;;;1.77;;
14139;SDS011;7150;53.514;9.988;2023-04-01T12:31:51;1.80;;;1.37;;
14139;SDS011;7150;53.514;9.988;2023-04-01T12:40:13;2.07;;;1.67;;
14139;SDS011;7150;53.514;9.988;2023-04-01T12:43:17;3.57;;;1.70;;
14139;SDS011;7150;53.514;9.988;2023-04-01T12:45:54;2.73;;;1.60;;
14139;SDS011;7150;53.514;9.988;2023-04-01T12:48:52;3.13;;;1.57;;
14139;SDS011;7150;53.514;9.988;2023-04-01T13:02:54;2.80;;;1.90;;
14139;SDS011;7150;53.514;9.988;2023-04-01T13:08:43;2.70;;;2.00;;
14139;SDS011;7150;53.514;9.988;2023-04-01T13:14:18;2.13;;;1.73;;
14139;SDS011;7150;53.514;9.988;2023-04-01T13:17:12;2.30;;;1.60;;
14139;SDS011;7150;53.514;9.988;2023-04-01T13:23:04;2.17;;;1.80;;
14139;SDS011;7150;53.514;9.988;2023-04-01T13:31:26;2.83;;;1.60;;
14139;SDS011;7150;53.514;9.988;2023-04-01T13:36:55;3.20;;;1.70;;
14139;SDS011;7150;53.514;9.988;2023-04-01T13:50:37;3.67;;;1.70;;
14139;SDS011;7150;53.514;9.988;2023-04-01T13:53:25;2.57;;;1.70;;
14139;SDS011;7150;53.514;9.988;2023-04-01T13:58:46;3.00;;;1.97;;
14139;SDS011;7150;53.514;9.988;2023-04-01T14:07:28;3.37;;;2.00;;
14139;SDS011;7150;53.514;9.988;2023-04-01T14:10:28;3.80;;;2.10;;
14139;SDS011;7150;53.514;9.988;2023-04-01T14:13:09;4.77;;;2.47;;
14139;SDS011;7150;53.514;9.988;2023-04-01T14:18:33;3.93;;;2.57;;
14139;SDS011;7150;53.514;9.988;2023-04-01T14:23:59;3.50;;;2.20;;
14139;SDS011;7150;53.514;9.988;2023-04-01T14:35:38;2.97;;;2.13;;
14139;SDS011;7150;53.514;9.988;2023-04-01T14:41:13;4.13;;;2.30;;
14139;SDS011;7150;53.514;9.988;2023-04-01T14:43:47;4.93;;;2.33;;
14139;SDS011;7150;53.514;9.988;2023-04-01T14:46:33;5.90;;;2.33;;
14139;SDS011;7150;53.514;9.988;2023-04-01T14:49:29;4.87;;;2.40;;
14139;SDS011;7150;53.514;9.988;2023-04-01T14:51:56;9.00;;;4.30;;
14139;SDS011;7150;53.514;9.988;2023-04-01T14:54:49;6.07;;;2.63;;
14139;SDS011;7150;53.514;9.988;2023-04-01T14:57:29;6.10;;;2.60;;
14139;SDS011;7150;53.514;9.988;2023-04-01T15:00:00;5.73;;;2.17;;
14139;SDS011;7150;53.514;9.988;2023-04-01T15:02:57;4.53;;;2.33;;
14139;SDS011;7150;53.514;9.988;2023-04-01T15:05:32;3.07;;;2.20;;
14139;SDS011;7150;53.514;9.988;2023-04-01T15:13:40;3.27;;;2.17;;
14139;SDS011;7150;53.514;9.988;2023-04-01T15:16:19;3.83;;;2.10;;
14139;SDS011;7150;53.514;9.988;2023-04-01T15:21:42;3.67;;;2.20;;
14139;SDS011;7150;53.514;9.988;2023-04-01T15:27:44;4.73;;;2.37;;
14139;SDS011;7150;53.514;9.988;2023-04-01T15:30:36;6.70;;;2.93;;
14139;SDS011;7150;53.514;9.988;2023-04-01T15:33:47;6.40;;;2.67;;
14139;SDS011;7150;53.514;9.988;2023-04-01T15:36:15;4.60;;;2.73;;
14139;SDS011;7150;53.514;9.988;2023-04-01T15:39:43;5.97;;;2.50;;
14139;SDS011;7150;53.514;9.988;2023-04-01T15:44:48;4.70;;;2.47;;
14139;SDS011;7150;53.514;9.988;2023-04-01T15:49:51;5.33;;;2.70;;
14139;SDS011;7150;53.514;9.988;2023-04-01T15:52:42;5.13;;;2.87;;
14139;SDS011;7150;53.514;9.988;2023-04-01T15:58:03;6.77;;;2.70;;
14139;SDS011;7150;53.514;9.988;2023-04-01T16:00:31;4.83;;;2.60;;
14139;SDS011;7150;53.514;9.988;2023-04-01T16:03:43;4.87;;;2.40;;
14139;SDS011;7150;53.514;9.988;2023-04-01T16:06:48;5.10;;;2.83;;
14139;SDS011;7150;53.514;9.988;2023-04-01T16:12:33;5.30;;;3.07;;
14139;SDS011;7150;53.514;9.988;2023-04-01T16:15:10;5.47;;;3.23;;
14139;SDS011;7150;53.514;9.988;2023-04-01T16:17:54;6.73;;;2.70;;
14139;SDS011;7150;53.514;9.988;2023-04-01T16:26:28;3.67;;;2.50;;
14139;SDS011;7150;53.514;9.988;2023-04-01T16:29:09;6.70;;;2.90;;
14139;SDS011;7150;53.514;9.988;2023-04-01T16:34:46;5.63;;;3.37;;
14139;SDS011;7150;53.514;9.988;2023-04-01T16:37:33;6.63;;;3.20;;
14139;SDS011;7150;53.514;9.988;2023-04-01T16:43:12;5.60;;;3.00;;
14139;SDS011;7150;53.514;9.988;2023-04-01T16:46:12;6.33;;;2.97;;
14139;SDS011;7150;53.514;9.988;2023-04-01T16:49:15;3.30;;;2.47;;
14139;SDS011;7150;53.514;9.988;2023-04-01T16:54:18;5.77;;;2.70;;
14139;SDS011;7150;53.514;9.988;2023-04-01T16:59:36;6.03;;;2.70;;
14139;SDS011;7150;53.514;9.988;2023-04-01T17:02:10;5.07;;;2.90;;
14139;SDS011;7150;53.514;9.988;2023-04-01T17:04:48;5.77;;;2.67;;
14139;SDS011;7150;53.514;9.988;2023-04-01T17:10:24;4.23;;;2.50;;
14139;SDS011;7150;53.514;9.988;2023-04-01T17:18:56;4.30;;;2.70;;
14139;SDS011;7150;53.514;9.988;2023-04-01T17:22:02;5.53;;;3.07;;
14139;SDS011;7150;53.514;9.988;2023-04-01T17:24:42;7.47;;;2.90;;
14139;SDS011;7150;53.514;9.988;2023-04-01T17:30:28;6.63;;;3.17;;
14139;SDS011;7150;53.514;9.988;2023-04-01T17:36:08;4.13;;;2.77;;
14139;SDS011;7150;53.514;9.988;2023-04-01T17:41:47;3.23;;;2.47;;
14139;SDS011;7150;53.514;9.988;2023-04-01T17:49:52;5.13;;;2.50;;
14139;SDS011;7150;53.514;9.988;2023-04-01T17:58:19;4.10;;;2.50;;
14139;SDS011;7150;53.514;9.988;2023-04-01T18:00:48;4.10;;;2.63;;
14139;SDS011;7150;53.514;9.988;2023-04-01T18:06:17;5.87;;;2.50;;
14139;SDS011;7150;53.514;9.988;2023-04-01T18:09:16;4.53;;;2.37;;
14139;SDS011;7150;53.514;9.988;2023-04-01T18:17:17;3.53;;;2.00;;
14139;SDS011;7150;53.514;9.988;2023-04-01T18:19:52;4.40;;;2.33;;
14139;SDS011;7150;53.514;9.988;2023-04-01T18:22:26;3.93;;;2.20;;
14139;SDS011;7150;53.514;9.988;2023-04-01T18:27:38;4.80;;;2.13;;
14139;SDS011;7150;53.514;9.988;2023-04-01T18:30:11;5.93;;;2.57;;
14139;SDS011;7150;53.514;9.988;2023-04-01T18:32:45;5.03;;;2.40;;
14139;SDS011;7150;53.514;9.988;2023-04-01T18:38:19;2.83;;;2.20;;
14139;SDS011;7150;53.514;9.988;2023-04-01T18:43:52;5.43;;;2.90;;
14139;SDS011;7150;53.514;9.988;2023-04-01T18:49:21;5.83;;;2.30;;
14139;SDS011;7150;53.514;9.988;2023-04-01T18:57:46;6.53;;;2.50;;
14139;SDS011;7150;53.514;9.988;2023-04-01T19:00:22;5.00;;;2.53;;
14139;SDS011;7150;53.514;9.988;2023-04-01T19:03:00;4.40;;;2.40;;
14139;SDS011;7150;53.514;9.988;2023-04-01T19:05:33;5.40;;;2.00;;
14139;SDS011;7150;53.514;9.988;2023-04-01T19:13:52;4.87;;;2.50;;
14139;SDS011;7150;53.514;9.988;2023-04-01T19:19:34;4.07;;;2.03;;
14139;SDS011;7150;53.514;9.988;2023-04-01T19:22:13;5.77;;;2.27;;
14139;SDS011;7150;53.514;9.988;2023-04-01T19:27:38;4.27;;;2.40;;
14139;SDS011;7150;53.514;9.988;2023-04-01T19:35:17;7.10;;;2.40;;
14139;SDS011;7150;53.514;9.988;2023-04-01T19:37:53;2.30;;;2.00;;
14139;SDS011;7150;53.514;9.988;2023-04-01T19:40:37;5.73;;;3.53;;
14139;SDS011;7150;53.514;9.988;2023-04-01T19:45:54;5.67;;;2.37;;
14139;SDS011;7150;53.514;9.988;2023-04-01T19:51:37;5.83;;;2.43;;
14139;SDS011;7150;53.514;9.988;2023-04-01T19:54:30;3.50;;;2.37;;
14139;SDS011;7150;53.514;9.988;2023-04-01T19:57:14;5.00;;;2.27;;
14139;SDS011;7150;53.514;9.988;2023-04-01T20:02:39;4.97;;;2.73;;
14139;SDS011;7150;53.514;9.988;2023-04-01T20:08:24;5.73;;;2.53;;
14139;SDS011;7150;53.514;9.988;2023-04-01T20:13:41;5.60;;;2.87;;
14139;SDS011;7150;53.514;9.988;2023-04-01T20:16:11;4.20;;;2.17;;
14139;SDS011;7150;53.514;9.988;2023-04-01T20:26:39;4.17;;;2.27;;
14139;SDS011;7150;53.514;9.988;2023-04-01T20:29:14;5.77;;;2.40;;
14139;SDS011;7150;53.514;9.988;2023-04-01T20:32:11;5.53;;;2.23;;
14139;SDS011;7150;53.514;9.988;2023-04-01T20:34:46;4.27;;;2.27;;
14139;SDS011;7150;53.514;9.988;2023-04-01T20:43:52;4.70;;;2.20;;
14139;SDS011;7150;53.514;9.988;2023-04-01T20:46:14;3.77;;;2.47;;
14139;SDS011;7150;53.514;9.988;2023-04-01T20:51:53;2.97;;;1.90;;
14139;SDS011;7150;53.514;9.988;2023-04-01T20:57:21;3.17;;;2.10;;
14139;SDS011;7150;53.514;9.988;2023-04-01T21:11:23;7.70;;;2.53;;
14139;SDS011;7150;53.514;9.988;2023-04-01T21:19:56;4.13;;;1.80;;
14139;SDS011;7150;53.514;9.988;2023-04-01T21:23:04;5.53;;;2.03;;
14139;SDS011;7150;53.514;9.988;2023-04-01T21:25:46;3.70;;;1.70;;
14139;SDS011;7150;53.514;9.988;2023-04-01T21:28:41;4.53;;;1.90;;
14139;SDS011;7150;53.514;9.988;2023-04-01T21:31:21;7.77;;;2.30;;
14139;SDS011;7150;53.514;9.988;2023-04-01T21:33:54;5.40;;;1.80;;
14139;SDS011;7150;53.514;9.988;2023-04-01T21:39:21;3.87;;;1.90;;
14139;SDS011;7150;53.514;9.988;2023-04-01T21:42:23;6.33;;;1.70;;
14139;SDS011;7150;53.514;9.988;2023-04-01T21:45:07;4.13;;;2.03;;
14139;SDS011;7150;53.514;9.988;2023-04-01T21:48:00;6.50;;;1.97;;
14139;SDS011;7150;53.514;9.988;2023-04-01T22:02:59;3.83;;;1.60;;
14139;SDS011;7150;53.514;9.988;2023-04-01T22:05:11;5.30;;;1.87;;
14139;SDS011;7150;53.514;9.988;2023-04-01T22:07:53;7.47;;;1.87;;
14139;SDS011;7150;53.514;9.988;2023-04-01T22:13:15;4.07;;;1.70;;
14139;SDS011;7150;53.514;9.988;2023-04-01T22:21:10;2.97;;;1.30;;
14139;SDS011;7150;53.514;9.988;2023-04-01T22:26:53;2.87;;;1.70;;
14139;SDS011;7150;53.514;9.988;2023-04-01T22:31:52;4.27;;;1.40;;
14139;SDS011;7150;53.514;9.988;2023-04-01T22:34:36;3.57;;;1.60;;
14139;SDS011;7150;53.514;9.988;2023-04-01T22:37:23;2.20;;;1.27;;
14139;SDS011;7150;53.514;9.988;2023-04-01T22:42:56;2.60;;;1.40;;
14139;SDS011;7150;53.514;9.988;2023-04-01T22:53:32;4.20;;;1.60;;
14139;SDS011;7150;53.514;9.988;2023-04-01T22:56:21;4.70;;;2.03;;
14139;SDS011;7150;53.514;9.988;2023-04-01T22:59:04;2.53;;;1.50;;
14139;SDS011;7150;53.514;9.988;2023-04-01T23:01:36;6.17;;;1.60;;
14139;SDS011;7150;53.514;9.988;2023-04-01T23:04:09;7.70;;;2.13;;
14139;SDS011;7150;53.514;9.988;2023-04-01T23:06:41;3.13;;;1.60;;
14139;SDS011;7150;53.514;9.988;2023-04-01T23:09:15;4.60;;;1.37;;
14139;SDS011;7150;53.514;9.988;2023-04-01T23:11:47;2.03;;;0.90;;
14139;SDS011;7150;53.514;9.988;2023-04-01T23:22:34;6.73;;;1.63;;
14139;SDS011;7150;53.514;9.988;2023-04-01T23:25:13;6.03;;;1.47;;
14139;SDS011;7150;53.514;9.988;2023-04-01T23:27:45;3.43;;;1.40;;
14139;SDS011;7150;53.514;9.988;2023-04-01T23:35:49;4.57;;;1.27;;
14139;SDS011;7150;53.514;9.988;2023-04-01T23:38:18;3.97;;;1.40;;
14139;SDS011;7150;53.514;9.988;2023-04-01T23:40:47;6.03;;;1.93;;
14139;SDS011;7150;53.514;9.988;2023-04-01T23:43:22;4.53;;;1.70;;
14139;SDS011;7150;53.514;9.988;2023-04-01T23:45:48;4.87;;;1.60;;
14139;SDS011;7150;53.514;9.988;2023-04-01T23:48:15;3.00;;;1.40;;
14139;SDS011;7150;53.514;9.988;2023-04-01T23:50:44;4.20;;;1.37;;
14139;SDS011;7150;53.514;9.988;2023-04-01T23:53:16;3.63;;;1.50;;
14139;SDS011;7150;53.514;9.988;2023-04-01T23:55:44;4.10;;;1.63;;
14139;SDS011;7150;53.514;9.988;2023-04-01T23:58:26;4.73;;;1.30;;
